Latest Coastal Weather Observations for McCluer Island

IDD60701

Issued at 9:51 am CST Thursday 29 January 2015 (issued every 10 minutes, with the page automatically refreshed every 10 minutes)

About coastal observations | Map of coastal stations | Coastal observations for NT | Marine services | Other Formats
Station Details ID: 014274 Name: MCCLUER ISLAND Lat: -11.05 Lon: 132.98 Height: 1.4 m
Data from the previous 72 hours. | See also: Recent months at McCluer Island
Date/Time
CST
Temp

°C
Wind Pressure Rain
since 9am
mm
Weather Cloud Vis
km
Sea
Height
m
Swell
Dir
 
Speed
knots
Gust
knots
hPa Trend Height
m
Period
s
Dir
29/09:30am 28.6 WNW 8 9 1007.5 - 0.0 - - - - - - -
29/09:00am 28.4 WNW 7 8 1007.4 - 0.2 - - - - - - -
29/08:30am 28.0 W 4 5 1006.8 - 0.2 - - - - - - -
29/08:00am 27.6 WSW 6 7 1006.2 - 0.2 - - - - - - -
29/07:30am 27.2 WSW 6 8 1006.0 - 0.2 - - - - - - -
29/07:00am 26.7 WSW 6 7 1005.7 - 0.2 - - - - - - -
29/06:30am 26.4 S 4 5 1005.3 - 0.2 - - - - - - -
29/06:00am 26.1 SSE 6 8 1004.7 - 0.2 - - - - - - -
29/05:30am 25.8 SSE 7 9 1004.5 - 0.2 - - - - - - -
29/05:00am 25.9 SE 6 7 1005.1 - 0.2 - - - - - - -
29/04:30am 26.2 SSE 5 7 1005.5 - 0.2 - - - - - - -
29/04:00am 26.2 SSE 9 12 1004.8 - 0.2 - - - - - - -
29/03:30am 26.1 S 9 11 1005.6 - 0.2 - - - - - - -
29/03:00am 26.5 S 11 14 1005.5 - 0.2 - - - - - - -
29/02:30am 26.7 SSE 6 9 1006.0 - 0.2 - - - - - - -
29/02:00am 26.7 SSE 9 12 1006.1 - 0.2 - - - - - - -
29/01:30am 26.8 S 11 15 1005.9 - 0.2 - - - - - - -
29/01:00am 27.4 S 8 11 1006.6 - 0.2 - - - - - - -
29/12:30am 28.1 SW 15 18 1006.7 - 0.2 - - - - - - -
29/12:00am 27.8 WSW 13 16 1007.0 - 0.2 - - - - - - -
 
Date/Time
CST
Temp

°C
Wind Pressure Rain
since 9am
mm
Weather Cloud Vis
km
Sea
Height
m
Swell
Dir
 
Speed
knots
Gust
knots
hPa Trend Height
m
Period
s
Dir
28/11:30pm 28.0 WSW 12 14 1007.2 - 0.2 - - - - - - -
28/11:00pm 28.4 WSW 12 15 1007.1 - 0.2 - - - - - - -
28/10:30pm 28.6 W 12 15 1007.0 - 0.2 - - - - - - -
28/10:00pm 28.5 W 14 17 1006.6 - 0.2 - - - - - - -
28/09:30pm 28.6 W 14 18 1006.4 - 0.2 - - - - - - -
28/09:00pm 28.6 W 16 19 1006.4 - 0.2 - - - - - - -
28/08:30pm 28.7 W 16 18 1005.7 - 0.2 - - - - - - -
28/08:00pm 28.7 W 14 16 1005.1 - 0.2 - - - - - - -
28/07:30pm 28.8 WNW 15 17 1004.8 - 0.2 - - - - - - -
28/07:00pm 29.0 WNW 17 19 1004.3 - 0.2 - - - - - - -
28/06:30pm 29.3 WNW 18 20 1003.8 - 0.2 - - - - - - -
28/06:00pm 29.7 WNW 18 22 1003.5 - 0.2 - - - - - - -
28/05:30pm 29.9 WNW 21 24 1003.0 - 0.2 - - - - - - -
28/05:00pm 29.5 WNW 19 22 1002.7 - 0.2 - - - - - - -
28/04:30pm 29.4 WNW 18 20 1002.7 - 0.2 - - - - - - -
28/04:00pm 30.1 WNW 15 18 1002.4 - 0.2 - - - - - - -
28/03:30pm 30.2 WNW 15 17 1002.4 - 0.2 - - - - - - -
28/03:00pm 30.3 WNW 15 17 1003.3 - 0.2 - - - - - - -
28/02:30pm 30.7 WNW 14 17 1003.7 - 0.2 - - - - - - -
28/02:00pm 30.7 WNW 15 17 1004.0 - 0.2 - - - - - - -
28/01:30pm 30.6 WNW 14 17 1004.3 - 0.2 - - - - - - -
28/01:00pm 30.3 WNW 15 17 1004.6 - 0.2 - - - - - - -
28/12:30pm 30.0 WNW 16 18 1004.8 - 0.2 - - - - - - -
28/12:00pm 29.7 WNW 14 17 1005.4 - 0.2 - - - - - - -
28/11:30am 30.8 W 9 12 1005.6 - 0.2 - - - - - - -
28/11:00am 29.9 W 9 12 1005.8 - 0.2 - - - - - - -
28/10:30am 29.8 W 10 13 1005.7 - 0.0 - - - - - - -
28/10:00am 29.4 W 11 14 1005.7 - 0.0 - - - - - - -
28/09:30am 29.0 W 11 13 1005.7 - 0.0 - - - - - - -
28/09:00am 29.2 W 9 12 1005.7 - 0.2 - - - - - - -
28/08:30am 28.5 W 9 12 1005.5 - 0.2 - - - - - - -
28/08:00am 28.1 W 10 13 1005.1 - 0.2 - - - - - - -
28/07:30am 27.7 W 10 12 1005.0 - 0.2 - - - - - - -
28/07:00am 27.7 WSW 10 13 1004.8 - 0.2 - - - - - - -
28/06:30am 27.7 WSW 11 14 1004.5 - 0.2 - - - - - - -
28/06:00am 27.6 W 9 12 1004.0 - 0.2 - - - - - - -
28/05:30am 27.6 W 10 13 1003.7 - 0.2 - - - - - - -
28/05:00am 27.6 W 13 16 1003.6 - 0.2 - - - - - - -
28/04:30am 27.7 W 12 15 1003.4 - 0.2 - - - - - - -
28/04:00am 27.8 W 12 16 1003.7 - 0.2 - - - - - - -
28/03:30am 27.7 WSW 13 16 1003.8 - 0.2 - - - - - - -
28/03:00am 27.7 W 13 16 1004.2 - 0.2 - - - - - - -
28/02:30am 27.7 WSW 14 16 1004.2 - 0.2 - - - - - - -
28/02:00am 27.7 WSW 14 15 1004.6 - 0.2 - - - - - - -
28/01:30am 27.7 WSW 14 17 1005.1 - 0.2 - - - - - - -
28/01:00am 27.6 W 13 15 1005.7 - 0.2 - - - - - - -
28/12:30am 27.6 WSW 13 16 1006.1 - 0.2 - - - - - - -
28/12:00am 27.8 WSW 17 19 1006.5 - 0.2 - - - - - - -
 
Date/Time
CST
Temp

°C
Wind Pressure Rain
since 9am
mm
Weather Cloud Vis
km
Sea
Height
m
Swell
Dir
 
Speed
knots
Gust
knots
hPa Trend Height
m
Period
s
Dir
27/11:30pm 28.0 WSW 15 17 1006.6 - 0.2 - - - - - - -
27/11:00pm 28.0 WSW 12 15 1006.5 - 0.2 - - - - - - -
27/10:30pm 28.0 W 11 14 1006.4 - 0.2 - - - - - - -
27/10:00pm 28.1 W 14 17 1006.6 - 0.2 - - - - - - -
27/09:30pm 28.1 W 14 17 1006.6 - 0.2 - - - - - - -
27/09:00pm 28.1 W 15 19 1006.2 - 0.2 - - - - - - -
27/08:30pm 28.2 W 15 18 1005.4 - 0.2 - - - - - - -
27/08:00pm 28.1 W 16 18 1004.9 - 0.2 - - - - - - -
27/07:30pm 27.9 W 15 17 1005.1 - 0.2 - - - - - - -
27/07:00pm 27.9 WNW 17 19 1004.7 - 0.2 - - - - - - -
27/06:30pm 27.9 W 13 15 1003.9 - 0.2 - - - - - - -
27/06:00pm 28.0 W 12 17 1003.6 - 0.2 - - - - - - -
27/05:30pm 27.6 W 9 12 1003.4 - 0.2 - - - - - - -
27/05:00pm 27.0 W 9 12 1003.7 - 0.2 - - - - - - -
27/04:30pm 26.6 WSW 10 13 1003.6 - 0.2 - - - - - - -
27/04:00pm 25.4 SSW 10 12 1003.8 - 0.2 - - - - - - -
27/03:30pm 26.4 SW 23 29 1004.4 - 0.0 - - - - - - -
27/03:27pm 26.8 WSW 25 29 1004.5 - 0.0 - - - - - - -
27/03:00pm 29.9 WNW 18 21 1004.7 - 0.0 - - - - - - -
27/02:30pm 30.3 WNW 18 22 1005.0 - 0.0 - - - - - - -
27/02:00pm 29.2 WNW 17 19 1004.9 - 0.0 - - - - - - -
27/01:30pm 29.9 WNW 14 17 1005.3 - 0.0 - - - - - - -
27/01:00pm 30.5 WNW 16 18 1006.0 - 0.0 - - - - - - -
27/12:30pm 30.3 WNW 15 18 1006.3 - 0.0 - - - - - - -
27/12:00pm 30.4 WNW 15 17 1006.9 - 0.0 - - - - - - -
27/11:30am 30.1 W 14 17 1007.3 - 0.0 - - - - - - -
27/11:00am 29.9 W 14 16 1007.5 - 0.0 - - - - - - -
27/10:30am 30.1 W 14 16 1007.9 - 0.0 - - - - - - -
27/10:00am 29.5 W 12 16 1007.8 - 0.0 - - - - - - -
27/09:30am 29.8 W 13 15 1008.0 - 0.0 - - - - - - -
27/09:00am 29.0 W 14 17 1008.2 - 0.0 - - - - - - -
27/08:30am 28.9 W 14 17 1008.1 - 0.0 - - - - - - -
27/08:00am 28.6 W 12 15 1007.8 - 0.0 - - - - - - -
27/07:30am 28.2 W 16 19 1007.6 - 0.0 - - - - - - -
27/07:00am 28.1 W 19 22 1007.3 - 0.0 - - - - - - -
27/06:30am 28.0 W 18 23 1006.9 - 0.0 - - - - - - -
27/06:00am 27.9 W 17 21 1006.3 - 0.0 - - - - - - -
27/05:30am 28.0 WNW 17 20 1006.1 - 0.0 - - - - - - -
27/05:00am 27.9 WNW 16 19 1006.0 - 0.0 - - - - - - -
27/04:30am 27.9 WNW 18 21 1006.0 - 0.0 - - - - - - -
27/04:00am 28.0 WNW 17 19 1006.0 - 0.0 - - - - - - -
27/03:30am 28.1 WNW 17 20 1005.8 - 0.0 - - - - - - -
27/03:00am 27.9 WNW 17 21 1005.8 - 0.0 - - - - - - -
27/02:30am 28.0 W 19 21 1005.8 - 0.0 - - - - - - -
27/02:00am 28.0 W 14 18 1006.6 - 0.0 - - - - - - -
27/01:30am 28.0 W 13 17 1007.2 - 0.0 - - - - - - -
27/01:00am 28.1 W 14 19 1007.5 - 0.0 - - - - - - -
27/12:30am 28.1 W 14 18 1007.9 - 0.0 - - - - - - -
27/12:00am 28.1 W 17 19 1008.1 - 0.0 - - - - - - -
 
Date/Time
CST
Temp

°C
Wind Pressure Rain
since 9am
mm
Weather Cloud Vis
km
Sea
Height
m
Swell
Dir
 
Speed
knots
Gust
knots
hPa Trend Height
m
Period
s
Dir
26/11:30pm 28.2 W 15 19 1008.4 - 0.0 - - - - - - -
26/11:00pm 28.3 W 17 20 1008.2 - 0.0 - - - - - - -
26/10:30pm 28.3 W 15 19 1007.8 - 0.0 - - - - - - -
26/10:00pm 28.1 W 16 18 1007.7 - 0.0 - - - - - - -
26/09:30pm 28.3 WNW 16 18 1007.3 - 0.0 - - - - - - -
26/09:00pm 28.4 W 15 18 1007.3 - 0.0 - - - - - - -
26/08:30pm 28.4 WNW 17 20 1007.0 - 0.0 - - - - - - -
26/08:00pm 28.3 WNW 16 19 1006.9 - 0.0 - - - - - - -
26/07:30pm 28.3 W 17 20 1006.7 - 0.0 - - - - - - -
26/07:00pm 28.8 WNW 17 21 1006.5 - 0.0 - - - - - - -
26/06:30pm 29.0 WNW 17 19 1006.4 - 0.0 - - - - - - -
26/06:00pm 29.1 WNW 16 18 1006.1 - 0.0 - - - - - - -
26/05:30pm 29.9 NW 16 19 1006.1 - 0.0 - - - - - - -
26/05:00pm 30.2 WNW 16 19 1006.2 - 0.0 - - - - - - -
26/04:30pm 30.1 WNW 16 18 1006.3 - 0.0 - - - - - - -
26/04:00pm 30.1 WNW 17 19 1006.3 - 0.0 - - - - - - -
26/03:30pm 30.2 NW 15 18 1006.7 - 0.0 - - - - - - -
26/03:00pm 30.4 WNW 15 19 1006.4 - 0.0 - - - - - - -
26/02:30pm 30.0 NW 18 20 1006.4 - 0.0 - - - - - - -
26/02:00pm 30.2 NW 15 16 1007.2 - 0.0 - - - - - - -
26/01:30pm 30.6 NW 12 15 1007.5 - 0.0 - - - - - - -
26/01:00pm 29.5 NW 14 17 1007.9 - 0.0 - - - - - - -
26/12:30pm 29.8 NW 16 19 1008.0 - 0.0 - - - - - - -
26/12:00pm 30.9 WNW 16 18 1008.4 - 0.0 - - - - - - -
26/11:30am 30.3 WNW 14 16 1009.0 - 0.0 - - - - - - -
26/11:00am 29.4 WNW 14 16 1009.3 - 0.0 - - - - - - -
26/10:30am 29.6 WNW 14 16 1009.4 - 0.0 - - - - - - -
26/10:00am 28.7 NW 14 16 1009.6 - 0.0 - - - - - - -

Other Formats:

Comma delimited format used in spreadsheet applications
http://www.bom.gov.au/fwo/IDD60701/IDD60701.94135.axf

JavaScript Object Notation format (JSON) in row-major order
http://www.bom.gov.au/fwo/IDD60701/IDD60701.94135.json